sensor_id;sensor_type;location;lat;lon;timestamp;temperature;humidity
34153;DHT22;20426;48.372;10.888;2023-05-29T00:00:14;15.80;96.30
34153;DHT22;20426;48.372;10.888;2023-05-29T00:00:48;15.80;96.40
34153;DHT22;20426;48.372;10.888;2023-05-29T00:01:19;15.80;96.40
34153;DHT22;20426;48.372;10.888;2023-05-29T00:01:51;15.70;96.40
34153;DHT22;20426;48.372;10.888;2023-05-29T00:02:22;15.70;96.40
34153;DHT22;20426;48.372;10.888;2023-05-29T00:02:53;15.70;96.50
34153;DHT22;20426;48.372;10.888;2023-05-29T00:03:24;15.70;96.50
34153;DHT22;20426;48.372;10.888;2023-05-29T00:03:55;15.70;96.50
34153;DHT22;20426;48.372;10.888;2023-05-29T00:04:25;15.70;96.60
34153;DHT22;20426;48.372;10.888;2023-05-29T00:04:56;15.70;96.60
34153;DHT22;20426;48.372;10.888;2023-05-29T00:05:27;15.70;96.60
34153;DHT22;20426;48.372;10.888;2023-05-29T00:05:58;15.70;96.60
34153;DHT22;20426;48.372;10.888;2023-05-29T00:06:29;15.70;96.60
34153;DHT22;20426;48.372;10.888;2023-05-29T00:07:00;15.70;96.70
34153;DHT22;20426;48.372;10.888;2023-05-29T00:07:31;15.70;96.70
34153;DHT22;20426;48.372;10.888;2023-05-29T00:08:05;15.70;96.70
34153;DHT22;20426;48.372;10.888;2023-05-29T00:08:37;15.70;96.70
34153;DHT22;20426;48.372;10.888;2023-05-29T00:09:07;15.60;96.70
34153;DHT22;20426;48.372;10.888;2023-05-29T00:09:38;15.70;96.80
34153;DHT22;20426;48.372;10.888;2023-05-29T00:10:10;15.70;96.80
34153;DHT22;20426;48.372;10.888;2023-05-29T00:10:42;15.70;96.80
34153;DHT22;20426;48.372;10.888;2023-05-29T00:11:13;15.60;96.80
34153;DHT22;20426;48.372;10.888;2023-05-29T00:11:44;15.70;96.90
34153;DHT22;20426;48.372;10.888;2023-05-29T00:12:17;15.70;96.90
34153;DHT22;20426;48.372;10.888;2023-05-29T00:12:49;15.70;96.90
34153;DHT22;20426;48.372;10.888;2023-05-29T00:13:20;15.60;96.90
34153;DHT22;20426;48.372;10.888;2023-05-29T00:13:50;15.60;96.90
34153;DHT22;20426;48.372;10.888;2023-05-29T00:14:21;15.70;97.00
34153;DHT22;20426;48.372;10.888;2023-05-29T00:14:54;15.70;97.00
34153;DHT22;20426;48.372;10.888;2023-05-29T00:15:24;15.60;97.00
34153;DHT22;20426;48.372;10.888;2023-05-29T00:15:56;15.70;97.00
34153;DHT22;20426;48.372;10.888;2023-05-29T00:16:27;15.60;97.00
34153;DHT22;20426;48.372;10.888;2023-05-29T00:16:58;15.60;97.10
34153;DHT22;20426;48.372;10.888;2023-05-29T00:17:29;15.60;97.00
34153;DHT22;20426;48.372;10.888;2023-05-29T00:18:02;15.60;97.00
34153;DHT22;20426;48.372;10.888;2023-05-29T00:18:33;15.60;97.40
34153;DHT22;20426;48.372;10.888;2023-05-29T00:19:05;15.60;97.10
34153;DHT22;20426;48.372;10.888;2023-05-29T00:19:36;15.60;97.10
34153;DHT22;20426;48.372;10.888;2023-05-29T00:20:07;15.60;97.10
34153;DHT22;20426;48.372;10.888;2023-05-29T00:20:42;15.50;97.10
34153;DHT22;20426;48.372;10.888;2023-05-29T00:21:13;15.50;97.20
34153;DHT22;20426;48.372;10.888;2023-05-29T00:21:44;15.50;97.20
34153;DHT22;20426;48.372;10.888;2023-05-29T00:22:18;15.50;97.20
34153;DHT22;20426;48.372;10.888;2023-05-29T00:22:49;15.50;97.20
34153;DHT22;20426;48.372;10.888;2023-05-29T00:23:21;15.50;97.50
34153;DHT22;20426;48.372;10.888;2023-05-29T00:23:52;15.50;97.20
34153;DHT22;20426;48.372;10.888;2023-05-29T00:24:23;15.50;97.20
34153;DHT22;20426;48.372;10.888;2023-05-29T00:24:54;15.50;97.20
34153;DHT22;20426;48.372;10.888;2023-05-29T00:25:24;15.50;97.20
34153;DHT22;20426;48.372;10.888;2023-05-29T00:25:55;15.40;97.10
34153;DHT22;20426;48.372;10.888;2023-05-29T00:26:26;15.50;97.20
34153;DHT22;20426;48.372;10.888;2023-05-29T00:26:57;15.50;97.20
34153;DHT22;20426;48.372;10.888;2023-05-29T00:27:28;15.40;97.10
34153;DHT22;20426;48.372;10.888;2023-05-29T00:27:59;15.40;97.10
34153;DHT22;20426;48.372;10.888;2023-05-29T00:28:29;15.40;97.00
34153;DHT22;20426;48.372;10.888;2023-05-29T00:29:00;15.40;97.10
34153;DHT22;20426;48.372;10.888;2023-05-29T00:29:31;15.40;97.10
34153;DHT22;20426;48.372;10.888;2023-05-29T00:30:03;15.40;97.10
34153;DHT22;20426;48.372;10.888;2023-05-29T00:30:35;15.40;97.10
34153;DHT22;20426;48.372;10.888;2023-05-29T00:31:05;15.40;97.20
34153;DHT22;20426;48.372;10.888;2023-05-29T00:31:37;15.40;97.20
34153;DHT22;20426;48.372;10.888;2023-05-29T00:32:09;15.40;97.20
34153;DHT22;20426;48.372;10.888;2023-05-29T00:32:40;15.40;97.10
34153;DHT22;20426;48.372;10.888;2023-05-29T00:33:11;15.40;97.10
34153;DHT22;20426;48.372;10.888;2023-05-29T00:33:42;15.40;97.10
34153;DHT22;20426;48.372;10.888;2023-05-29T00:34:13;15.40;97.10
34153;DHT22;20426;48.372;10.888;2023-05-29T00:34:43;15.40;97.10
34153;DHT22;20426;48.372;10.888;2023-05-29T00:35:14;15.40;97.20
34153;DHT22;20426;48.372;10.888;2023-05-29T00:35:45;15.40;97.20
34153;DHT22;20426;48.372;10.888;2023-05-29T00:36:16;15.40;97.10
34153;DHT22;20426;48.372;10.888;2023-05-29T00:36:47;15.40;96.90
34153;DHT22;20426;48.372;10.888;2023-05-29T00:37:18;15.40;96.80
34153;DHT22;20426;48.372;10.888;2023-05-29T00:37:51;15.40;96.80
34153;DHT22;20426;48.372;10.888;2023-05-29T00:38:22;15.40;96.80
34153;DHT22;20426;48.372;10.888;2023-05-29T00:38:53;15.40;96.70
34153;DHT22;20426;48.372;10.888;2023-05-29T00:39:24;15.40;96.60
34153;DHT22;20426;48.372;10.888;2023-05-29T00:39:55;15.40;96.60
34153;DHT22;20426;48.372;10.888;2023-05-29T00:40:26;15.40;96.50
34153;DHT22;20426;48.372;10.888;2023-05-29T00:40:57;15.40;96.50
34153;DHT22;20426;48.372;10.888;2023-05-29T00:41:29;15.40;96.50
34153;DHT22;20426;48.372;10.888;2023-05-29T00:42:00;15.40;96.60
34153;DHT22;20426;48.372;10.888;2023-05-29T00:42:31;15.40;96.60
34153;DHT22;20426;48.372;10.888;2023-05-29T00:43:02;15.30;96.50
34153;DHT22;20426;48.372;10.888;2023-05-29T00:43:33;15.30;96.60
34153;DHT22;20426;48.372;10.888;2023-05-29T00:44:04;15.30;96.50
34153;DHT22;20426;48.372;10.888;2023-05-29T00:44:35;15.30;96.50
34153;DHT22;20426;48.372;10.888;2023-05-29T00:45:07;15.30;96.50
34153;DHT22;20426;48.372;10.888;2023-05-29T00:45:37;15.30;96.60
34153;DHT22;20426;48.372;10.888;2023-05-29T00:46:09;15.40;96.70
34153;DHT22;20426;48.372;10.888;2023-05-29T00:46:43;15.40;96.80
34153;DHT22;20426;48.372;10.888;2023-05-29T00:47:14;15.40;96.80
34153;DHT22;20426;48.372;10.888;2023-05-29T00:47:45;15.40;96.80
34153;DHT22;20426;48.372;10.888;2023-05-29T00:48:16;15.30;96.80
34153;DHT22;20426;48.372;10.888;2023-05-29T00:48:48;15.40;96.70
34153;DHT22;20426;48.372;10.888;2023-05-29T00:49:21;15.30;96.70
34153;DHT22;20426;48.372;10.888;2023-05-29T00:49:53;15.30;96.60
34153;DHT22;20426;48.372;10.888;2023-05-29T00:50:26;15.30;96.60
34153;DHT22;20426;48.372;10.888;2023-05-29T00:50:57;15.30;96.60
34153;DHT22;20426;48.372;10.888;2023-05-29T00:51:29;15.20;96.60
34153;DHT22;20426;48.372;10.888;2023-05-29T00:52:02;15.20;96.60
34153;DHT22;20426;48.372;10.888;2023-05-29T00:52:33;15.20;96.60
34153;DHT22;20426;48.372;10.888;2023-05-29T00:53:05;15.20;96.60
34153;DHT22;20426;48.372;10.888;2023-05-29T00:53:36;15.20;96.70
34153;DHT22;20426;48.372;10.888;2023-05-29T00:54:09;15.20;96.70
34153;DHT22;20426;48.372;10.888;2023-05-29T00:54:44;15.20;96.80
34153;DHT22;20426;48.372;10.888;2023-05-29T00:55:15;15.20;96.80
34153;DHT22;20426;48.372;10.888;2023-05-29T00:55:46;15.20;96.80
34153;DHT22;20426;48.372;10.888;2023-05-29T00:56:18;15.20;96.80
34153;DHT22;20426;48.372;10.888;2023-05-29T00:56:51;15.10;96.90
34153;DHT22;20426;48.372;10.888;2023-05-29T00:57:22;15.20;96.90
34153;DHT22;20426;48.372;10.888;2023-05-29T00:57:53;15.10;96.90
34153;DHT22;20426;48.372;10.888;2023-05-29T00:58:24;15.20;96.90
34153;DHT22;20426;48.372;10.888;2023-05-29T00:58:56;15.20;96.80
34153;DHT22;20426;48.372;10.888;2023-05-29T00:59:29;15.20;96.70
34153;DHT22;20426;48.372;10.888;2023-05-29T01:00:04;15.10;96.70
34153;DHT22;20426;48.372;10.888;2023-05-29T01:00:44;15.10;96.80
34153;DHT22;20426;48.372;10.888;2023-05-29T01:01:19;15.10;96.70
34153;DHT22;20426;48.372;10.888;2023-05-29T01:01:50;15.20;96.80
34153;DHT22;20426;48.372;10.888;2023-05-29T01:02:22;15.10;96.80
34153;DHT22;20426;48.372;10.888;2023-05-29T01:02:53;15.20;96.90
34153;DHT22;20426;48.372;10.888;2023-05-29T01:03:24;15.20;96.90
34153;DHT22;20426;48.372;10.888;2023-05-29T01:03:55;15.10;96.90
34153;DHT22;20426;48.372;10.888;2023-05-29T01:04:27;15.20;96.90
34153;DHT22;20426;48.372;10.888;2023-05-29T01:04:59;15.20;96.80
34153;DHT22;20426;48.372;10.888;2023-05-29T01:05:33;15.10;97.10
34153;DHT22;20426;48.372;10.888;2023-05-29T01:06:04;15.10;96.70
34153;DHT22;20426;48.372;10.888;2023-05-29T01:06:35;15.10;96.70
34153;DHT22;20426;48.372;10.888;2023-05-29T01:07:07;15.10;96.70
34153;DHT22;20426;48.372;10.888;2023-05-29T01:07:42;15.10;96.70
34153;DHT22;20426;48.372;10.888;2023-05-29T01:08:13;15.10;96.70
34153;DHT22;20426;48.372;10.888;2023-05-29T01:08:44;15.10;96.70
34153;DHT22;20426;48.372;10.888;2023-05-29T01:09:15;15.00;96.70
34153;DHT22;20426;48.372;10.888;2023-05-29T01:09:47;15.10;96.70
34153;DHT22;20426;48.372;10.888;2023-05-29T01:10:18;15.10;96.80
34153;DHT22;20426;48.372;10.888;2023-05-29T01:10:51;15.10;96.80
34153;DHT22;20426;48.372;10.888;2023-05-29T01:13:23;15.00;96.70
34153;DHT22;20426;48.372;10.888;2023-05-29T01:13:57;15.00;96.70
34153;DHT22;20426;48.372;10.888;2023-05-29T01:14:40;15.00;96.70
34153;DHT22;20426;48.372;10.888;2023-05-29T01:15:23;15.00;96.70
34153;DHT22;20426;48.372;10.888;2023-05-29T01:15:59;15.00;96.60
34153;DHT22;20426;48.372;10.888;2023-05-29T01:17:23;14.90;96.50
34153;DHT22;20426;48.372;10.888;2023-05-29T01:18:54;14.90;96.60
34153;DHT22;20426;48.372;10.888;2023-05-29T01:24:48;14.80;96.80
34153;DHT22;20426;48.372;10.888;2023-05-29T01:25:29;14.80;96.80
34153;DHT22;20426;48.372;10.888;2023-05-29T01:27:03;14.70;96.90
34153;DHT22;20426;48.372;10.888;2023-05-29T01:27:35;14.70;96.80
34153;DHT22;20426;48.372;10.888;2023-05-29T01:28:07;14.70;96.90
34153;DHT22;20426;48.372;10.888;2023-05-29T01:28:46;14.70;96.80
34153;DHT22;20426;48.372;10.888;2023-05-29T01:29:23;14.60;96.90
34153;DHT22;20426;48.372;10.888;2023-05-29T01:29:55;14.60;96.90
34153;DHT22;20426;48.372;10.888;2023-05-29T01:30:28;14.70;97.00
34153;DHT22;20426;48.372;10.888;2023-05-29T01:31:00;14.60;97.20
34153;DHT22;20426;48.372;10.888;2023-05-29T01:31:34;14.60;97.30
34153;DHT22;20426;48.372;10.888;2023-05-29T01:32:06;14.60;97.20
34153;DHT22;20426;48.372;10.888;2023-05-29T01:32:38;14.60;97.20
34153;DHT22;20426;48.372;10.888;2023-05-29T01:33:10;14.60;97.30
34153;DHT22;20426;48.372;10.888;2023-05-29T01:33:41;14.60;97.30
34153;DHT22;20426;48.372;10.888;2023-05-29T01:34:12;14.60;97.30
34153;DHT22;20426;48.372;10.888;2023-05-29T01:34:43;14.60;97.30
34153;DHT22;20426;48.372;10.888;2023-05-29T01:35:14;14.60;97.40
34153;DHT22;20426;48.372;10.888;2023-05-29T01:35:44;14.60;97.40
34153;DHT22;20426;48.372;10.888;2023-05-29T01:36:15;14.60;97.50
34153;DHT22;20426;48.372;10.888;2023-05-29T01:36:46;14.60;97.50
34153;DHT22;20426;48.372;10.888;2023-05-29T01:37:17;14.60;97.60
34153;DHT22;20426;48.372;10.888;2023-05-29T01:37:48;14.60;97.60
34153;DHT22;20426;48.372;10.888;2023-05-29T01:38:19;14.60;97.50
34153;DHT22;20426;48.372;10.888;2023-05-29T01:38:51;14.60;97.50
34153;DHT22;20426;48.372;10.888;2023-05-29T01:39:23;14.60;97.50
34153;DHT22;20426;48.372;10.888;2023-05-29T01:39:54;14.60;97.50
34153;DHT22;20426;48.372;10.888;2023-05-29T01:40:25;14.60;97.50
34153;DHT22;20426;48.372;10.888;2023-05-29T01:40:57;14.60;97.40
34153;DHT22;20426;48.372;10.888;2023-05-29T01:41:29;14.60;97.40
34153;DHT22;20426;48.372;10.888;2023-05-29T01:42:02;14.60;97.50
34153;DHT22;20426;48.372;10.888;2023-05-29T01:42:33;14.60;97.50
34153;DHT22;20426;48.372;10.888;2023-05-29T01:43:05;14.60;97.50
34153;DHT22;20426;48.372;10.888;2023-05-29T01:43:37;14.60;97.50
34153;DHT22;20426;48.372;10.888;2023-05-29T01:44:09;14.60;97.60
34153;DHT22;20426;48.372;10.888;2023-05-29T01:44:41;14.60;97.50
34153;DHT22;20426;48.372;10.888;2023-05-29T01:45:13;14.60;97.50
34153;DHT22;20426;48.372;10.888;2023-05-29T01:45:45;14.60;97.50
34153;DHT22;20426;48.372;10.888;2023-05-29T01:46:16;14.60;97.30
34153;DHT22;20426;48.372;10.888;2023-05-29T01:46:49;14.60;97.30
34153;DHT22;20426;48.372;10.888;2023-05-29T01:47:20;14.60;97.30
34153;DHT22;20426;48.372;10.888;2023-05-29T01:47:51;14.60;97.30
34153;DHT22;20426;48.372;10.888;2023-05-29T01:48:23;14.60;97.30
34153;DHT22;20426;48.372;10.888;2023-05-29T01:48:54;14.60;97.30
34153;DHT22;20426;48.372;10.888;2023-05-29T01:49:28;14.60;97.20
34153;DHT22;20426;48.372;10.888;2023-05-29T01:50:00;14.60;97.30
34153;DHT22;20426;48.372;10.888;2023-05-29T01:50:31;14.60;97.30
34153;DHT22;20426;48.372;10.888;2023-05-29T01:51:02;14.60;97.30
34153;DHT22;20426;48.372;10.888;2023-05-29T01:51:34;14.60;97.20
34153;DHT22;20426;48.372;10.888;2023-05-29T01:52:06;14.50;97.20
34153;DHT22;20426;48.372;10.888;2023-05-29T01:52:37;14.50;97.20
34153;DHT22;20426;48.372;10.888;2023-05-29T01:53:07;14.60;97.20
34153;DHT22;20426;48.372;10.888;2023-05-29T01:53:39;14.60;97.30
34153;DHT22;20426;48.372;10.888;2023-05-29T01:54:11;14.50;97.30
34153;DHT22;20426;48.372;10.888;2023-05-29T01:54:42;14.50;97.30
34153;DHT22;20426;48.372;10.888;2023-05-29T01:55:13;14.50;97.30
34153;DHT22;20426;48.372;10.888;2023-05-29T01:55:44;14.50;97.30
34153;DHT22;20426;48.372;10.888;2023-05-29T01:56:15;14.50;97.30
34153;DHT22;20426;48.372;10.888;2023-05-29T01:56:46;14.50;97.50
34153;DHT22;20426;48.372;10.888;2023-05-29T01:57:18;14.50;97.40
34153;DHT22;20426;48.372;10.888;2023-05-29T01:57:50;14.50;97.50
34153;DHT22;20426;48.372;10.888;2023-05-29T01:58:21;14.50;97.60
34153;DHT22;20426;48.372;10.888;2023-05-29T01:58:55;14.50;97.60
34153;DHT22;20426;48.372;10.888;2023-05-29T01:59:26;14.50;97.60
34153;DHT22;20426;48.372;10.888;2023-05-29T01:59:58;14.50;97.50
34153;DHT22;20426;48.372;10.888;2023-05-29T02:00:29;14.40;97.30
34153;DHT22;20426;48.372;10.888;2023-05-29T02:01:03;14.40;97.30
34153;DHT22;20426;48.372;10.888;2023-05-29T02:01:34;14.40;97.30
34153;DHT22;20426;48.372;10.888;2023-05-29T02:02:08;14.40;97.40
34153;DHT22;20426;48.372;10.888;2023-05-29T02:02:40;14.40;97.30
34153;DHT22;20426;48.372;10.888;2023-05-29T02:03:11;14.40;97.30
34153;DHT22;20426;48.372;10.888;2023-05-29T02:03:42;14.40;97.30
34153;DHT22;20426;48.372;10.888;2023-05-29T02:04:13;14.30;97.30
34153;DHT22;20426;48.372;10.888;2023-05-29T02:04:43;14.30;97.30
34153;DHT22;20426;48.372;10.888;2023-05-29T02:05:14;14.30;97.30
34153;DHT22;20426;48.372;10.888;2023-05-29T02:05:45;14.30;97.30
34153;DHT22;20426;48.372;10.888;2023-05-29T02:06:16;14.30;97.40
34153;DHT22;20426;48.372;10.888;2023-05-29T02:06:47;14.30;97.40
34153;DHT22;20426;48.372;10.888;2023-05-29T02:07:18;14.40;97.40
34153;DHT22;20426;48.372;10.888;2023-05-29T02:07:49;14.40;97.50
34153;DHT22;20426;48.372;10.888;2023-05-29T02:08:21;14.40;97.60
34153;DHT22;20426;48.372;10.888;2023-05-29T02:08:52;14.40;97.50
34153;DHT22;20426;48.372;10.888;2023-05-29T02:09:22;14.40;97.50
34153;DHT22;20426;48.372;10.888;2023-05-29T02:09:53;14.40;97.50
34153;DHT22;20426;48.372;10.888;2023-05-29T02:10:24;14.40;97.50
34153;DHT22;20426;48.372;10.888;2023-05-29T02:10:55;14.30;97.50
34153;DHT22;20426;48.372;10.888;2023-05-29T02:11:26;14.30;97.50
34153;DHT22;20426;48.372;10.888;2023-05-29T02:11:57;14.40;97.40
34153;DHT22;20426;48.372;10.888;2023-05-29T02:12:28;14.30;97.30
34153;DHT22;20426;48.372;10.888;2023-05-29T02:12:59;14.30;97.30
34153;DHT22;20426;48.372;10.888;2023-05-29T02:13:31;14.30;97.20
34153;DHT22;20426;48.372;10.888;2023-05-29T02:14:02;14.30;97.20
34153;DHT22;20426;48.372;10.888;2023-05-29T02:14:34;14.30;97.30
34153;DHT22;20426;48.372;10.888;2023-05-29T02:15:05;14.30;97.30
34153;DHT22;20426;48.372;10.888;2023-05-29T02:15:36;14.30;97.40
34153;DHT22;20426;48.372;10.888;2023-05-29T02:16:07;14.30;97.40
34153;DHT22;20426;48.372;10.888;2023-05-29T02:16:38;14.30;97.40
34153;DHT22;20426;48.372;10.888;2023-05-29T02:17:11;14.30;97.30
34153;DHT22;20426;48.372;10.888;2023-05-29T02:17:42;14.30;97.30
34153;DHT22;20426;48.372;10.888;2023-05-29T02:18:14;14.30;97.40
34153;DHT22;20426;48.372;10.888;2023-05-29T02:18:46;14.30;97.40
34153;DHT22;20426;48.372;10.888;2023-05-29T02:19:20;14.30;97.30
34153;DHT22;20426;48.372;10.888;2023-05-29T02:19:51;14.30;97.30
34153;DHT22;20426;48.372;10.888;2023-05-29T02:20:22;14.30;97.30
34153;DHT22;20426;48.372;10.888;2023-05-29T02:20:52;14.30;97.30
34153;DHT22;20426;48.372;10.888;2023-05-29T02:21:23;14.30;97.30
34153;DHT22;20426;48.372;10.888;2023-05-29T02:21:54;14.30;97.30
34153;DHT22;20426;48.372;10.888;2023-05-29T02:22:25;14.30;97.20
34153;DHT22;20426;48.372;10.888;2023-05-29T02:22:56;14.30;97.20
34153;DHT22;20426;48.372;10.888;2023-05-29T02:23:27;14.30;97.20
34153;DHT22;20426;48.372;10.888;2023-05-29T02:23:57;14.20;97.20
34153;DHT22;20426;48.372;10.888;2023-05-29T02:24:28;14.30;97.20
34153;DHT22;20426;48.372;10.888;2023-05-29T02:24:59;14.30;97.20
34153;DHT22;20426;48.372;10.888;2023-05-29T02:25:30;14.30;97.30
34153;DHT22;20426;48.372;10.888;2023-05-29T02:26:01;14.30;97.30
34153;DHT22;20426;48.372;10.888;2023-05-29T02:26:32;14.30;97.20
34153;DHT22;20426;48.372;10.888;2023-05-29T02:27:03;14.30;97.30
34153;DHT22;20426;48.372;10.888;2023-05-29T02:27:34;14.30;97.30
34153;DHT22;20426;48.372;10.888;2023-05-29T02:28:05;14.30;97.30
34153;DHT22;20426;48.372;10.888;2023-05-29T02:28:35;14.20;97.20
34153;DHT22;20426;48.372;10.888;2023-05-29T02:29:06;14.30;97.20
34153;DHT22;20426;48.372;10.888;2023-05-29T02:29:37;14.20;97.20
34153;DHT22;20426;48.372;10.888;2023-05-29T02:30:08;14.20;97.20
34153;DHT22;20426;48.372;10.888;2023-05-29T02:30:39;14.20;97.10
34153;DHT22;20426;48.372;10.888;2023-05-29T02:31:10;14.20;97.10
34153;DHT22;20426;48.372;10.888;2023-05-29T02:31:41;14.20;97.20
34153;DHT22;20426;48.372;10.888;2023-05-29T02:32:12;14.20;97.20
34153;DHT22;20426;48.372;10.888;2023-05-29T02:32:43;14.20;97.20
34153;DHT22;20426;48.372;10.888;2023-05-29T02:33:14;14.20;97.20
34153;DHT22;20426;48.372;10.888;2023-05-29T02:33:45;14.20;97.30
34153;DHT22;20426;48.372;10.888;2023-05-29T02:34:16;14.10;97.30
34153;DHT22;20426;48.372;10.888;2023-05-29T02:34:46;14.10;97.30
34153;DHT22;20426;48.372;10.888;2023-05-29T02:35:17;14.20;97.20
34153;DHT22;20426;48.372;10.888;2023-05-29T02:35:51;14.10;97.30
34153;DHT22;20426;48.372;10.888;2023-05-29T02:36:22;14.10;97.30
34153;DHT22;20426;48.372;10.888;2023-05-29T02:36:53;14.10;97.40
34153;DHT22;20426;48.372;10.888;2023-05-29T02:37:25;14.10;97.40
34153;DHT22;20426;48.372;10.888;2023-05-29T02:37:56;14.10;97.40
34153;DHT22;20426;48.372;10.888;2023-05-29T02:38:27;14.10;97.60
34153;DHT22;20426;48.372;10.888;2023-05-29T02:38:58;14.10;97.60
34153;DHT22;20426;48.372;10.888;2023-05-29T02:39:28;14.10;97.60
34153;DHT22;20426;48.372;10.888;2023-05-29T02:39:59;14.10;97.60
34153;DHT22;20426;48.372;10.888;2023-05-29T02:40:30;14.10;97.80
34153;DHT22;20426;48.372;10.888;2023-05-29T02:41:01;14.10;97.80
34153;DHT22;20426;48.372;10.888;2023-05-29T02:41:32;14.10;97.80
34153;DHT22;20426;48.372;10.888;2023-05-29T02:42:03;14.10;97.80
34153;DHT22;20426;48.372;10.888;2023-05-29T02:42:33;14.10;97.80
34153;DHT22;20426;48.372;10.888;2023-05-29T02:43:05;14.10;97.70
34153;DHT22;20426;48.372;10.888;2023-05-29T02:43:37;14.10;97.70
34153;DHT22;20426;48.372;10.888;2023-05-29T02:44:07;14.10;97.60
34153;DHT22;20426;48.372;10.888;2023-05-29T02:44:38;14.10;97.70
34153;DHT22;20426;48.372;10.888;2023-05-29T02:45:09;14.10;97.50
34153;DHT22;20426;48.372;10.888;2023-05-29T02:45:40;14.10;97.60
34153;DHT22;20426;48.372;10.888;2023-05-29T02:46:11;14.00;97.50
34153;DHT22;20426;48.372;10.888;2023-05-29T02:46:42;14.10;97.60
34153;DHT22;20426;48.372;10.888;2023-05-29T02:47:13;14.10;97.50
34153;DHT22;20426;48.372;10.888;2023-05-29T02:47:44;14.00;97.50
34153;DHT22;20426;48.372;10.888;2023-05-29T02:48:14;14.00;97.50
34153;DHT22;20426;48.372;10.888;2023-05-29T02:48:45;14.00;97.50
34153;DHT22;20426;48.372;10.888;2023-05-29T02:49:16;14.00;97.40
34153;DHT22;20426;48.372;10.888;2023-05-29T02:49:47;14.00;97.40
34153;DHT22;20426;48.372;10.888;2023-05-29T02:50:18;14.00;97.40
34153;DHT22;20426;48.372;10.888;2023-05-29T02:50:48;14.00;97.50
34153;DHT22;20426;48.372;10.888;2023-05-29T02:51:20;14.00;97.50
34153;DHT22;20426;48.372;10.888;2023-05-29T02:51:51;14.00;97.50
34153;DHT22;20426;48.372;10.888;2023-05-29T02:52:26;14.00;97.60
34153;DHT22;20426;48.372;10.888;2023-05-29T02:52:57;14.00;97.80
34153;DHT22;20426;48.372;10.888;2023-05-29T02:53:28;14.00;97.90
34153;DHT22;20426;48.372;10.888;2023-05-29T02:53:59;14.00;97.90
34153;DHT22;20426;48.372;10.888;2023-05-29T02:54:30;14.10;97.90
34153;DHT22;20426;48.372;10.888;2023-05-29T02:55:01;14.00;97.80
34153;DHT22;20426;48.372;10.888;2023-05-29T02:55:32;14.00;97.80
34153;DHT22;20426;48.372;10.888;2023-05-29T02:56:07;14.00;97.90
34153;DHT22;20426;48.372;10.888;2023-05-29T02:56:42;14.10;97.90
34153;DHT22;20426;48.372;10.888;2023-05-29T02:57:13;14.10;97.90
34153;DHT22;20426;48.372;10.888;2023-05-29T02:57:44;14.10;97.90
34153;DHT22;20426;48.372;10.888;2023-05-29T02:58:15;14.10;97.80
34153;DHT22;20426;48.372;10.888;2023-05-29T02:58:46;14.10;97.80
34153;DHT22;20426;48.372;10.888;2023-05-29T02:59:17;14.10;97.80
34153;DHT22;20426;48.372;10.888;2023-05-29T02:59:49;14.10;97.80
34153;DHT22;20426;48.372;10.888;2023-05-29T03:00:20;14.10;97.90
34153;DHT22;20426;48.372;10.888;2023-05-29T03:00:51;14.10;97.90
34153;DHT22;20426;48.372;10.888;2023-05-29T03:01:23;14.10;97.90
34153;DHT22;20426;48.372;10.888;2023-05-29T03:01:53;14.10;97.80
34153;DHT22;20426;48.372;10.888;2023-05-29T03:02:25;14.10;97.80
34153;DHT22;20426;48.372;10.888;2023-05-29T03:02:56;14.10;97.80
34153;DHT22;20426;48.372;10.888;2023-05-29T03:03:27;14.10;97.80
34153;DHT22;20426;48.372;10.888;2023-05-29T03:03:57;14.00;97.80
34153;DHT22;20426;48.372;10.888;2023-05-29T03:04:28;14.00;97.70
34153;DHT22;20426;48.372;10.888;2023-05-29T03:04:59;14.00;97.70
34153;DHT22;20426;48.372;10.888;2023-05-29T03:05:31;14.00;97.70
34153;DHT22;20426;48.372;10.888;2023-05-29T03:06:01;14.00;97.60
34153;DHT22;20426;48.372;10.888;2023-05-29T03:06:32;14.00;97.60
34153;DHT22;20426;48.372;10.888;2023-05-29T03:07:04;14.00;97.60
34153;DHT22;20426;48.372;10.888;2023-05-29T03:07:34;14.00;97.60
34153;DHT22;20426;48.372;10.888;2023-05-29T03:08:05;13.90;97.70
34153;DHT22;20426;48.372;10.888;2023-05-29T03:08:36;13.90;97.70
34153;DHT22;20426;48.372;10.888;2023-05-29T03:09:15;13.90;97.70
34153;DHT22;20426;48.372;10.888;2023-05-29T03:09:48;13.90;97.70
34153;DHT22;20426;48.372;10.888;2023-05-29T03:10:19;14.00;97.80
34153;DHT22;20426;48.372;10.888;2023-05-29T03:10:51;13.90;97.70
34153;DHT22;20426;48.372;10.888;2023-05-29T03:11:22;13.90;97.80
34153;DHT22;20426;48.372;10.888;2023-05-29T03:11:55;13.90;97.90
34153;DHT22;20426;48.372;10.888;2023-05-29T03:12:26;14.00;98.00
34153;DHT22;20426;48.372;10.888;2023-05-29T03:12:58;14.00;98.10
34153;DHT22;20426;48.372;10.888;2023-05-29T03:13:29;13.90;98.10
34153;DHT22;20426;48.372;10.888;2023-05-29T03:13:59;13.90;98.10
34153;DHT22;20426;48.372;10.888;2023-05-29T03:14:30;13.90;98.30
34153;DHT22;20426;48.372;10.888;2023-05-29T03:15:06;14.00;98.20
34153;DHT22;20426;48.372;10.888;2023-05-29T03:15:38;14.00;98.20
34153;DHT22;20426;48.372;10.888;2023-05-29T03:16:09;14.00;98.30
34153;DHT22;20426;48.372;10.888;2023-05-29T03:16:39;14.00;98.20
34153;DHT22;20426;48.372;10.888;2023-05-29T03:17:11;13.90;98.20
34153;DHT22;20426;48.372;10.888;2023-05-29T03:17:42;13.90;98.10
34153;DHT22;20426;48.372;10.888;2023-05-29T03:18:13;13.90;98.20
34153;DHT22;20426;48.372;10.888;2023-05-29T03:18:44;13.90;98.20
34153;DHT22;20426;48.372;10.888;2023-05-29T03:19:15;13.90;98.20
34153;DHT22;20426;48.372;10.888;2023-05-29T03:19:46;13.90;98.10
34153;DHT22;20426;48.372;10.888;2023-05-29T03:20:17;13.90;98.10
34153;DHT22;20426;48.372;10.888;2023-05-29T03:20:47;13.90;98.10
34153;DHT22;20426;48.372;10.888;2023-05-29T03:21:19;13.90;98.10
34153;DHT22;20426;48.372;10.888;2023-05-29T03:21:50;13.90;98.20
34153;DHT22;20426;48.372;10.888;2023-05-29T03:22:21;13.90;98.20
34153;DHT22;20426;48.372;10.888;2023-05-29T03:22:52;13.90;98.20
34153;DHT22;20426;48.372;10.888;2023-05-29T03:23:22;13.90;98.20
34153;DHT22;20426;48.372;10.888;2023-05-29T03:23:53;13.90;98.20
34153;DHT22;20426;48.372;10.888;2023-05-29T03:24:24;13.90;98.30
34153;DHT22;20426;48.372;10.888;2023-05-29T03:24:55;13.90;98.20
34153;DHT22;20426;48.372;10.888;2023-05-29T03:25:26;13.90;98.20
34153;DHT22;20426;48.372;10.888;2023-05-29T03:25:57;13.90;98.30
34153;DHT22;20426;48.372;10.888;2023-05-29T03:26:28;13.90;98.40